createdAt,value
2023-04-12T00:01:12.956Z,1.50
2023-04-12T00:03:41.728Z,1.58
2023-04-12T00:06:11.442Z,1.73
2023-04-12T00:08:42.833Z,1.50
2023-04-12T00:11:11.348Z,1.30
2023-04-12T00:13:40.017Z,1.45
2023-04-12T00:16:10.727Z,1.50
2023-04-12T00:18:39.330Z,1.50
2023-04-12T00:21:10.337Z,1.33
2023-04-12T00:23:39.413Z,1.60
2023-04-12T00:26:08.341Z,1.33
2023-04-12T00:28:37.332Z,1.45
2023-04-12T00:31:06.187Z,1.27
2023-04-12T00:33:37.561Z,1.50
2023-04-12T00:36:06.891Z,1.20
2023-04-12T00:38:36.578Z,1.33
2023-04-12T00:41:05.980Z,1.42
2023-04-12T00:43:35.176Z,1.17
2023-04-12T00:46:03.924Z,1.48
2023-04-12T00:48:32.723Z,1.48
2023-04-12T00:51:04.857Z,1.40
2023-04-12T00:53:35.045Z,1.38
2023-04-12T00:56:04.989Z,1.40
2023-04-12T00:58:33.651Z,1.48
2023-04-12T01:01:02.877Z,1.20
2023-04-12T01:03:31.537Z,1.38
2023-04-12T01:06:15.024Z,1.17
2023-04-12T01:08:55.195Z,1.30
2023-04-12T01:11:32.409Z,1.20
2023-04-12T01:14:08.380Z,1.40
2023-04-12T01:16:41.715Z,1.40
2023-04-12T01:19:35.177Z,1.30
2023-04-12T01:22:14.540Z,1.40
2023-04-12T01:24:57.544Z,1.30
2023-04-12T01:27:40.773Z,1.30
2023-04-12T01:30:13.322Z,1.45
2023-04-12T01:32:45.543Z,1.33
2023-04-12T01:35:15.993Z,1.30
2023-04-12T01:37:45.144Z,1.33
2023-04-12T01:40:14.585Z,1.40
2023-04-12T01:42:44.436Z,1.45
2023-04-12T01:45:13.181Z,1.33
2023-04-12T01:47:41.754Z,1.20
2023-04-12T01:50:22.085Z,1.20
2023-04-12T01:52:57.166Z,1.40
2023-04-12T01:55:30.972Z,1.25
2023-04-12T01:58:03.672Z,1.45
2023-04-12T02:00:35.079Z,1.30
2023-04-12T02:03:04.723Z,1.23
2023-04-12T02:05:34.819Z,1.20
2023-04-12T02:08:04.101Z,1.50
2023-04-12T02:10:33.307Z,1.20
2023-04-12T02:13:03.745Z,1.35
2023-04-12T02:15:32.476Z,1.42
2023-04-12T02:18:01.654Z,1.30
2023-04-12T02:20:30.780Z,1.30
2023-04-12T02:23:00.393Z,1.20
2023-04-12T02:25:28.826Z,1.33
2023-04-12T02:27:57.598Z,1.27
2023-04-12T02:30:28.048Z,1.10
2023-04-12T02:32:57.818Z,1.15
2023-04-12T02:35:32.380Z,1.25
2023-04-12T02:38:09.401Z,1.40
2023-04-12T02:40:42.136Z,1.20
2023-04-12T02:43:14.792Z,1.20
2023-04-12T02:45:49.012Z,1.27
2023-04-12T02:48:17.620Z,1.30
2023-04-12T02:50:46.879Z,1.20
2023-04-12T02:53:18.692Z,1.15
2023-04-12T02:55:54.084Z,1.25
2023-04-12T02:58:27.403Z,1.30
2023-04-12T03:00:57.435Z,1.45
2023-04-12T03:03:31.914Z,1.52
2023-04-12T03:06:08.925Z,1.40
2023-04-12T03:08:38.312Z,1.45
2023-04-12T03:11:07.507Z,1.40
2023-04-12T03:13:36.180Z,1.30
2023-04-12T03:18:59.448Z,1.50
2023-04-12T03:21:31.087Z,1.30
2023-04-12T03:23:59.938Z,1.63
2023-04-12T03:26:28.767Z,1.50
2023-04-12T03:31:36.450Z,1.50
2023-04-12T03:34:11.501Z,1.40
2023-04-12T03:39:21.086Z,1.20
2023-04-12T03:41:53.486Z,1.30
2023-04-12T03:44:26.865Z,1.50
2023-04-12T03:46:57.691Z,1.40
2023-04-12T03:49:29.688Z,1.40
2023-04-12T03:51:58.531Z,1.40
2023-04-12T03:54:27.806Z,1.52
2023-04-12T03:57:01.840Z,1.20
2023-04-12T03:59:38.233Z,1.30
2023-04-12T04:02:07.596Z,1.30
2023-04-12T04:04:41.051Z,1.35
2023-04-12T04:07:13.122Z,1.30
2023-04-12T04:09:44.646Z,1.35
2023-04-12T04:12:13.952Z,1.40
2023-04-12T04:14:46.910Z,1.20
2023-04-12T04:17:25.004Z,1.27
2023-04-12T04:19:55.603Z,1.20
2023-04-12T04:22:24.427Z,1.35
2023-04-12T04:24:55.925Z,1.27
2023-04-12T04:27:24.533Z,1.42
2023-04-12T04:29:58.253Z,1.40
2023-04-12T04:32:26.849Z,1.42
2023-04-12T04:35:00.581Z,1.40
2023-04-12T04:37:38.186Z,1.30
2023-04-12T04:40:09.540Z,1.40
2023-04-12T04:42:40.122Z,1.40
2023-04-12T04:45:16.046Z,1.50
2023-04-12T04:47:46.683Z,1.38
2023-04-12T04:50:16.845Z,1.40
2023-04-12T04:52:45.304Z,1.40
2023-04-12T04:55:15.429Z,1.33
2023-04-12T04:57:46.866Z,1.33
2023-04-12T05:00:18.435Z,1.50
2023-04-12T05:02:53.631Z,1.63
2023-04-12T05:05:32.672Z,1.40
2023-04-12T05:08:08.033Z,1.38
2023-04-12T05:10:37.926Z,1.23
2023-04-12T05:13:06.543Z,1.50
2023-04-12T05:15:35.345Z,1.70
2023-04-12T05:18:04.034Z,1.60
2023-04-12T05:20:34.059Z,1.63
2023-04-12T05:23:02.863Z,1.35
2023-04-12T05:25:31.588Z,1.75
2023-04-12T05:28:07.275Z,1.73
2023-04-12T05:30:36.119Z,1.63
2023-04-12T05:33:06.060Z,1.77
2023-04-12T05:35:37.771Z,1.60
2023-04-12T05:38:06.362Z,1.58
2023-04-12T05:40:36.481Z,1.63
2023-04-12T05:43:06.593Z,1.70
2023-04-12T05:45:35.445Z,1.80
2023-04-12T05:48:04.066Z,1.70
2023-04-12T05:50:32.737Z,1.77
2023-04-12T05:53:03.219Z,1.90
2023-04-12T05:55:36.574Z,1.65
2023-04-12T05:58:06.612Z,1.60
2023-04-12T06:00:35.209Z,1.73
2023-04-12T06:03:03.909Z,1.70
2023-04-12T06:05:32.866Z,1.58
2023-04-12T06:08:02.033Z,2.03
2023-04-12T06:10:32.408Z,1.55
2023-04-12T06:13:01.205Z,1.50
2023-04-12T06:15:31.925Z,1.60
2023-04-12T06:18:00.780Z,1.25
2023-04-12T06:20:29.594Z,1.50
2023-04-12T06:22:58.305Z,1.63
2023-04-12T06:25:27.343Z,1.90
2023-04-12T06:27:58.453Z,1.40
2023-04-12T06:30:28.078Z,1.50
2023-04-12T06:32:56.927Z,1.50
2023-04-12T06:35:25.526Z,1.60
2023-04-12T06:37:54.065Z,1.90
2023-04-12T06:40:23.195Z,1.52
2023-04-12T06:42:51.913Z,1.60
2023-04-12T06:45:25.553Z,1.30
2023-04-12T06:47:55.998Z,1.65
2023-04-12T06:50:24.745Z,1.40
2023-04-12T06:52:53.529Z,1.70
2023-04-12T06:55:22.733Z,1.35
2023-04-12T06:57:52.375Z,1.50
2023-04-12T07:00:21.263Z,1.40
2023-04-12T07:02:51.620Z,1.30
2023-04-12T07:05:20.507Z,1.35
2023-04-12T07:07:49.019Z,1.60
2023-04-12T07:10:17.782Z,1.58
2023-04-12T07:12:46.735Z,1.52
2023-04-12T07:15:15.394Z,1.60
2023-04-12T07:17:44.037Z,1.40
2023-04-12T07:20:14.315Z,1.50
2023-04-12T07:22:43.088Z,1.30
2023-04-12T07:25:11.789Z,1.30
2023-04-12T07:27:40.410Z,1.50
2023-04-12T07:30:10.087Z,1.38
2023-04-12T07:32:38.944Z,1.30
2023-04-12T07:35:08.481Z,1.30
2023-04-12T07:37:39.023Z,1.38
2023-04-12T07:40:08.624Z,1.52
2023-04-12T07:42:37.063Z,1.40
2023-04-12T07:45:06.799Z,1.38
2023-04-12T07:47:35.380Z,1.40
2023-04-12T07:50:04.253Z,1.40
2023-04-12T07:52:33.446Z,1.20
2023-04-12T07:55:03.464Z,1.20
2023-04-12T07:57:34.076Z,1.33
2023-04-12T08:00:02.877Z,1.40
2023-04-12T08:02:41.609Z,1.33
2023-04-12T08:05:10.804Z,1.40
2023-04-12T08:07:39.351Z,1.30
2023-04-12T08:10:10.586Z,1.40
2023-04-12T08:12:39.146Z,1.50
2023-04-12T08:15:09.366Z,1.50
2023-04-12T08:17:38.039Z,1.48
2023-04-12T08:20:07.610Z,1.33
2023-04-12T08:22:36.312Z,1.15
2023-04-12T08:25:05.560Z,1.25
2023-04-12T08:27:35.863Z,1.45
2023-04-12T08:30:04.930Z,1.20
2023-04-12T08:32:33.515Z,1.08
2023-04-12T08:35:02.560Z,1.20
2023-04-12T08:37:31.709Z,1.40
2023-04-12T08:40:01.473Z,1.10
2023-04-12T08:42:30.748Z,1.23
2023-04-12T08:45:00.830Z,1.13
2023-04-12T08:47:29.375Z,1.20
2023-04-12T08:49:58.390Z,1.20
2023-04-12T08:52:27.118Z,1.00
2023-04-12T08:54:56.443Z,1.15
2023-04-12T08:57:26.623Z,1.30
2023-04-12T08:59:56.205Z,1.20
2023-04-12T09:02:26.516Z,1.40
2023-04-12T09:04:55.824Z,1.30
2023-04-12T09:07:28.163Z,1.20
2023-04-12T09:09:58.323Z,1.00
2023-04-12T09:12:27.392Z,1.17
2023-04-12T09:15:12.519Z,1.30
2023-04-12T09:17:45.629Z,1.30
2023-04-12T09:20:25.795Z,1.20
2023-04-12T09:22:55.811Z,1.20
2023-04-12T09:25:38.696Z,1.15
2023-04-12T09:28:23.031Z,1.25
2023-04-12T09:30:52.658Z,1.27
2023-04-12T09:33:24.156Z,1.30
2023-04-12T09:36:01.726Z,1.40
2023-04-12T09:38:30.946Z,1.50
2023-04-12T09:41:18.070Z,1.42
2023-04-12T09:43:48.300Z,1.30
2023-04-12T09:46:17.035Z,1.65
2023-04-12T09:48:52.715Z,1.70
2023-04-12T09:51:29.317Z,1.60
2023-04-12T09:54:00.877Z,1.50
2023-04-12T09:56:30.997Z,1.35
2023-04-12T09:59:03.681Z,1.90
2023-04-12T10:01:36.957Z,2.40
2023-04-12T10:04:08.887Z,1.90
2023-04-12T10:06:38.210Z,1.95
2023-04-12T10:09:08.814Z,1.60
2023-04-12T10:11:41.811Z,1.92
2023-04-12T10:14:12.161Z,1.70
2023-04-12T10:16:42.309Z,2.00
2023-04-12T10:19:14.405Z,1.70
2023-04-12T10:21:43.069Z,2.53
2023-04-12T10:24:12.435Z,2.75
2023-04-12T10:26:43.225Z,2.00
2023-04-12T10:29:25.933Z,2.10
2023-04-12T10:31:55.139Z,2.20
2023-04-12T10:34:32.308Z,1.70
2023-04-12T10:37:02.409Z,2.20
2023-04-12T10:39:44.904Z,1.98
2023-04-12T10:42:27.259Z,2.17
2023-04-12T10:45:00.991Z,2.22
2023-04-12T10:48:02.040Z,1.70
2023-04-12T10:50:35.503Z,1.50
2023-04-12T10:53:26.674Z,1.27
2023-04-12T10:55:55.605Z,1.40
2023-04-12T10:58:57.702Z,1.30
2023-04-12T11:01:28.237Z,1.30
2023-04-12T11:04:18.125Z,1.20
2023-04-12T11:07:05.293Z,1.23
2023-04-12T11:09:57.972Z,1.20
2023-04-12T11:12:30.650Z,1.40
2023-04-12T11:15:02.235Z,1.48
2023-04-12T11:17:56.217Z,1.30
2023-04-12T11:20:28.507Z,1.50
2023-04-12T11:22:59.416Z,1.20
2023-04-12T11:25:30.060Z,1.60
2023-04-12T11:27:58.674Z,1.40
2023-04-12T11:30:29.802Z,1.42
2023-04-12T11:32:58.620Z,1.40
2023-04-12T11:35:30.456Z,1.25
2023-04-12T11:38:01.243Z,1.35
2023-04-12T11:40:31.137Z,1.50
2023-04-12T11:43:02.857Z,1.98
2023-04-12T11:45:32.037Z,1.90
2023-04-12T11:48:00.861Z,1.50
2023-04-12T11:50:30.687Z,1.45
2023-04-12T11:53:13.118Z,2.10
2023-04-12T11:55:42.100Z,1.58
2023-04-12T11:58:10.597Z,1.65
2023-04-12T12:00:39.533Z,1.88
2023-04-12T12:03:08.943Z,1.65
2023-04-12T12:05:41.341Z,1.70
2023-04-12T12:08:12.302Z,1.80
2023-04-12T12:10:46.928Z,1.90
2023-04-12T12:13:24.702Z,1.42
2023-04-12T12:15:53.562Z,1.50
2023-04-12T12:18:27.248Z,1.75
2023-04-12T12:20:56.710Z,1.80
2023-04-12T12:23:31.542Z,1.75
2023-04-12T12:28:52.274Z,1.98
2023-04-12T12:31:22.619Z,1.83
2023-04-12T12:33:55.580Z,1.80
2023-04-12T12:36:31.394Z,2.00
2023-04-12T12:39:08.148Z,1.85
2023-04-12T12:41:36.977Z,1.88
2023-04-12T12:44:07.238Z,1.63
2023-04-12T12:49:07.558Z,1.77
2023-04-12T12:51:36.477Z,1.50
2023-04-12T12:54:07.805Z,1.60
2023-04-12T12:56:36.726Z,1.50
2023-04-12T12:59:05.516Z,1.83
2023-04-12T13:01:34.034Z,1.70
2023-04-12T13:04:02.731Z,1.60
2023-04-12T13:06:32.000Z,1.50
2023-04-12T13:09:00.706Z,1.80
2023-04-12T13:11:30.956Z,1.90
2023-04-12T13:13:59.647Z,1.70
2023-04-12T13:16:29.670Z,2.00
2023-04-12T13:18:58.783Z,1.70
2023-04-12T13:21:27.716Z,1.88
2023-04-12T13:23:56.177Z,1.88
2023-04-12T13:26:25.922Z,1.77
2023-04-12T13:28:56.293Z,1.65
2023-04-12T13:31:25.166Z,1.52
2023-04-12T13:33:53.685Z,1.70
2023-04-12T13:36:22.332Z,2.00
2023-04-12T13:38:51.015Z,2.30
2023-04-12T13:41:19.721Z,2.13
2023-04-12T13:43:48.225Z,2.70
2023-04-12T13:46:18.272Z,2.00
2023-04-12T13:48:46.780Z,1.90
2023-04-12T13:51:15.395Z,2.45
2023-04-12T13:53:43.946Z,1.85
2023-04-12T13:56:12.847Z,1.85
2023-04-12T13:58:41.434Z,1.65
2023-04-12T14:01:10.594Z,2.10
2023-04-12T14:03:40.728Z,1.83
2023-04-12T14:06:09.654Z,1.55
2023-04-12T14:08:38.337Z,1.27
2023-04-12T14:11:07.537Z,1.20
2023-04-12T14:13:35.960Z,1.13
2023-04-12T14:16:04.539Z,1.20
2023-04-12T14:18:33.067Z,1.23
2023-04-12T14:21:04.042Z,1.20
2023-04-12T14:23:32.594Z,1.00
2023-04-12T14:26:01.128Z,1.20
2023-04-12T14:28:31.097Z,1.13
2023-04-12T14:31:02.976Z,1.25
2023-04-12T14:33:33.099Z,1.10
2023-04-12T14:36:05.091Z,1.13
2023-04-12T14:38:33.855Z,1.10
2023-04-12T14:41:02.833Z,1.00
2023-04-12T14:43:31.321Z,1.20
2023-04-12T14:46:00.061Z,1.20
2023-04-12T14:48:28.791Z,0.90
2023-04-12T14:50:57.368Z,1.08
2023-04-12T14:53:27.440Z,1.05
2023-04-12T14:55:55.930Z,1.10
2023-04-12T14:58:24.395Z,1.00
2023-04-12T15:00:53.034Z,1.30
2023-04-12T15:03:22.199Z,1.15
2023-04-12T15:05:50.858Z,1.17
2023-04-12T15:08:19.842Z,1.30
2023-04-12T15:10:49.961Z,1.00
2023-04-12T15:13:18.996Z,1.17
2023-04-12T15:15:48.360Z,1.02
2023-04-12T15:18:16.968Z,1.30
2023-04-12T15:20:45.599Z,1.30
2023-04-12T15:23:14.140Z,1.52
2023-04-12T15:25:42.631Z,1.48
2023-04-12T15:28:16.175Z,1.40
2023-04-12T15:30:44.663Z,1.70
2023-04-12T15:33:13.236Z,1.58
2023-04-12T15:35:41.850Z,2.00
2023-04-12T15:38:14.283Z,2.03
2023-04-12T15:40:44.516Z,2.60
2023-04-12T15:43:14.456Z,3.00
2023-04-12T15:45:44.980Z,2.50
2023-04-12T15:48:14.571Z,2.20
2023-04-12T15:50:43.345Z,2.08
2023-04-12T15:53:12.116Z,2.17
2023-04-12T15:55:41.131Z,2.03
2023-04-12T15:58:14.126Z,1.75
2023-04-12T16:00:44.067Z,1.77
2023-04-12T16:03:17.666Z,1.33
2023-04-12T16:05:47.125Z,1.52
2023-04-12T16:08:15.600Z,1.40
2023-04-12T16:10:44.240Z,1.20
2023-04-12T16:13:13.862Z,1.40
2023-04-12T16:15:43.921Z,1.20
2023-04-12T16:18:12.874Z,1.23
2023-04-12T16:20:44.649Z,1.10
2023-04-12T16:23:13.539Z,1.10
2023-04-12T16:25:42.161Z,1.00
2023-04-12T16:28:12.502Z,0.90
2023-04-12T16:30:41.370Z,0.90
2023-04-12T16:33:11.431Z,1.10
2023-04-12T16:35:40.010Z,1.00
2023-04-12T16:38:08.584Z,0.80
2023-04-12T16:40:37.329Z,0.90
2023-04-12T16:43:06.835Z,1.33
2023-04-12T16:45:35.472Z,0.90
2023-04-12T16:48:04.201Z,1.10
2023-04-12T16:50:34.148Z,0.88
2023-04-12T16:53:03.810Z,0.90
2023-04-12T16:55:32.321Z,1.10
2023-04-12T16:58:00.864Z,1.20
2023-04-12T17:00:29.531Z,1.00
2023-04-12T17:02:58.129Z,1.17
2023-04-12T17:05:27.216Z,2.03
2023-04-12T17:07:57.585Z,1.77
2023-04-12T17:10:26.795Z,1.55
2023-04-12T17:12:56.811Z,1.60
2023-04-12T17:15:27.417Z,1.70
2023-04-12T17:18:02.608Z,1.35
2023-04-12T17:20:31.525Z,1.60
2023-04-12T17:23:02.207Z,1.35
2023-04-12T17:25:32.157Z,1.40
2023-04-12T17:28:01.266Z,1.30
2023-04-12T17:30:30.218Z,1.20
2023-04-12T17:33:01.144Z,1.17
2023-04-12T17:35:30.283Z,1.30
2023-04-12T17:37:59.077Z,1.40
2023-04-12T17:40:29.242Z,1.27
2023-04-12T17:42:57.731Z,1.30
2023-04-12T17:45:26.519Z,1.20
2023-04-12T17:47:56.001Z,1.27
2023-04-12T17:50:24.892Z,1.10
2023-04-12T17:52:55.695Z,1.00
2023-04-12T17:55:25.987Z,1.02
2023-04-12T17:57:57.104Z,1.08
2023-04-12T18:00:26.833Z,1.10
2023-04-12T18:02:56.469Z,1.00
2023-04-12T18:05:27.457Z,1.10
2023-04-12T18:08:00.641Z,1.10
2023-04-12T18:10:30.541Z,1.20
2023-04-12T18:13:02.119Z,1.23
2023-04-12T18:15:34.944Z,1.10
2023-04-12T18:18:06.625Z,1.30
2023-04-12T18:20:37.446Z,1.40
2023-04-12T18:23:06.650Z,1.30
2023-04-12T18:25:36.702Z,1.50
2023-04-12T18:28:10.304Z,1.40
2023-04-12T18:30:40.931Z,1.45
2023-04-12T18:33:12.279Z,1.30
2023-04-12T18:35:46.913Z,1.33
2023-04-12T18:38:17.687Z,1.30
2023-04-12T18:40:47.296Z,1.40
2023-04-12T18:43:19.211Z,1.33
2023-04-12T18:45:52.225Z,1.60
2023-04-12T18:48:21.939Z,1.50
2023-04-12T18:50:52.918Z,1.40
2023-04-12T18:53:25.623Z,1.60
2023-04-12T18:55:55.153Z,1.90
2023-04-12T18:58:29.797Z,1.55
2023-04-12T19:01:05.128Z,2.00
2023-04-12T19:03:36.776Z,2.20
2023-04-12T19:06:07.768Z,2.40
2023-04-12T19:08:37.440Z,2.10
2023-04-12T19:11:09.983Z,2.00
2023-04-12T19:13:42.896Z,1.73
2023-04-12T19:16:12.997Z,1.70
2023-04-12T19:18:42.743Z,2.00
2023-04-12T19:21:11.698Z,1.92
2023-04-12T19:23:40.360Z,1.67
2023-04-12T19:26:09.874Z,1.60
2023-04-12T19:28:46.579Z,1.60
2023-04-12T19:31:18.232Z,1.42
2023-04-12T19:33:48.327Z,1.33
2023-04-12T19:36:19.745Z,1.60
2023-04-12T19:38:50.345Z,1.70
2023-04-12T19:41:21.367Z,1.60
2023-04-12T19:43:52.705Z,1.35
2023-04-12T19:46:23.412Z,1.40
2023-04-12T19:48:55.903Z,1.38
2023-04-12T19:51:26.048Z,1.33
2023-04-12T19:53:57.559Z,1.17
2023-04-12T19:56:30.309Z,1.20
2023-04-12T19:59:02.621Z,1.25
2023-04-12T20:01:43.492Z,1.10
2023-04-12T20:04:15.215Z,1.30
2023-04-12T20:06:47.729Z,1.20
2023-04-12T20:09:19.047Z,1.20
2023-04-12T20:11:49.779Z,1.10
2023-04-12T20:14:24.889Z,1.00
2023-04-12T20:16:58.390Z,1.20
2023-04-12T20:19:30.797Z,1.00
2023-04-12T20:22:04.547Z,1.00
2023-04-12T20:24:38.621Z,0.93
2023-04-12T20:27:10.530Z,1.10
2023-04-12T20:29:43.353Z,0.93
2023-04-12T20:32:20.701Z,0.80
2023-04-12T20:34:59.741Z,0.80
2023-04-12T20:37:33.467Z,1.05
2023-04-12T20:40:10.184Z,0.93
2023-04-12T20:42:45.014Z,1.10
2023-04-12T20:45:19.851Z,1.10
2023-04-12T20:47:56.321Z,0.90
2023-04-12T20:50:31.575Z,0.80
2023-04-12T20:53:03.092Z,0.80
2023-04-12T20:55:35.949Z,0.80
2023-04-12T20:58:09.538Z,0.85
2023-04-12T21:00:42.223Z,0.80
2023-04-12T21:03:14.584Z,1.20
2023-04-12T21:05:50.529Z,1.42
2023-04-12T21:08:26.291Z,1.23
2023-04-12T21:11:00.432Z,1.80
2023-04-12T21:13:32.673Z,2.00
2023-04-12T21:16:08.757Z,1.52
2023-04-12T21:18:42.232Z,1.20
2023-04-12T21:21:22.856Z,1.20
2023-04-12T21:23:57.629Z,1.50
2023-04-12T21:26:35.210Z,1.20
2023-04-12T21:31:37.488Z,1.25
2023-04-12T21:34:13.510Z,1.63
2023-04-12T21:36:49.497Z,1.60
2023-04-12T21:39:19.590Z,1.40
2023-04-12T21:41:51.197Z,1.70
2023-04-12T21:44:24.033Z,1.60
2023-04-12T21:46:57.640Z,2.20
2023-04-12T21:49:30.179Z,1.80
2023-04-12T21:51:59.482Z,1.40
2023-04-12T21:54:32.171Z,1.60
2023-04-12T21:57:04.363Z,1.67
2023-04-12T21:59:39.915Z,1.40
2023-04-12T22:02:13.612Z,1.20
2023-04-12T22:04:46.105Z,1.67
2023-04-12T22:07:19.572Z,1.40
2023-04-12T22:09:50.517Z,1.50
2023-04-12T22:12:24.050Z,1.45
2023-04-12T22:14:58.007Z,1.10
2023-04-12T22:17:31.280Z,1.30
2023-04-12T22:22:38.348Z,1.23
2023-04-12T22:25:16.590Z,1.70
2023-04-12T22:27:48.068Z,1.55
2023-04-12T22:30:22.609Z,1.20
2023-04-12T22:32:55.643Z,1.30
2023-04-12T22:35:25.689Z,1.20
2023-04-12T22:37:56.463Z,1.25
2023-04-12T22:40:26.488Z,1.05
2023-04-12T22:42:58.164Z,1.10
2023-04-12T22:45:32.351Z,0.90
2023-04-12T22:48:07.802Z,1.00
2023-04-12T22:50:39.721Z,1.00
2023-04-12T22:53:12.747Z,0.98
2023-04-12T22:55:43.469Z,0.90
2023-04-12T22:58:13.378Z,0.90
2023-04-12T23:00:43.110Z,1.00
2023-04-12T23:03:13.760Z,0.90
2023-04-12T23:05:45.914Z,0.80
2023-04-12T23:08:22.557Z,1.10
2023-04-12T23:10:54.637Z,0.80
2023-04-12T23:13:24.349Z,0.90
2023-04-12T23:15:54.184Z,0.90
2023-04-12T23:18:29.733Z,0.90
2023-04-12T23:21:04.288Z,1.00
2023-04-12T23:23:37.108Z,0.90
2023-04-12T23:26:08.320Z,1.40
2023-04-12T23:28:40.667Z,1.10
2023-04-12T23:31:14.156Z,1.20
2023-04-12T23:33:47.659Z,1.00
2023-04-12T23:36:22.077Z,1.05
2023-04-12T23:38:55.371Z,1.40
2023-04-12T23:41:28.183Z,1.10
2023-04-12T23:43:57.531Z,1.30
2023-04-12T23:46:28.420Z,1.35
2023-04-12T23:49:00.935Z,1.10
2023-04-12T23:51:31.311Z,1.52
2023-04-12T23:54:01.152Z,1.30
2023-04-12T23:56:30.807Z,1.40
2023-04-12T23:59:02.347Z,1.13
